sensor_id;sensor_type;location;lat;lon;timestamp;pressure;altitude;pressure_sealevel;temperature;humidity
59513;BME280;45330;51.634;5.562;2024-03-02T00:00:14;99738.78;;;7.21;100.00
59513;BME280;45330;51.634;5.562;2024-03-02T00:02:43;99745.72;;;7.19;100.00
59513;BME280;45330;51.634;5.562;2024-03-02T00:05:22;99736.19;;;7.21;100.00
59513;BME280;45330;51.634;5.562;2024-03-02T00:07:59;99753.34;;;7.34;100.00
59513;BME280;45330;51.634;5.562;2024-03-02T00:10:27;99765.38;;;7.37;100.00
59513;BME280;45330;51.634;5.562;2024-03-02T00:12:57;99753.28;;;7.37;100.00
59513;BME280;45330;51.634;5.562;2024-03-02T00:17:53;99786.75;;;7.54;100.00
59513;BME280;45330;51.634;5.562;2024-03-02T00:20:22;99791.00;;;7.62;100.00
59513;BME280;45330;51.634;5.562;2024-03-02T00:22:47;99795.31;;;7.63;100.00
59513;BME280;45330;51.634;5.562;2024-03-02T00:25:13;99793.56;;;7.63;100.00
59513;BME280;45330;51.634;5.562;2024-03-02T00:27:38;99832.38;;;7.65;100.00
59513;BME280;45330;51.634;5.562;2024-03-02T00:30:46;99855.69;;;7.65;100.00
59513;BME280;45330;51.634;5.562;2024-03-02T00:33:16;99861.88;;;7.51;100.00
59513;BME280;45330;51.634;5.562;2024-03-02T00:35:44;99874.06;;;7.40;100.00
59513;BME280;45330;51.634;5.562;2024-03-02T00:38:10;99867.22;;;7.33;100.00
59513;BME280;45330;51.634;5.562;2024-03-02T00:40:35;99868.16;;;7.21;100.00
59513;BME280;45330;51.634;5.562;2024-03-02T00:43:01;99863.06;;;7.12;100.00
59513;BME280;45330;51.634;5.562;2024-03-02T00:45:28;99851.94;;;7.03;100.00
59513;BME280;45330;51.634;5.562;2024-03-02T00:47:54;99862.31;;;7.00;100.00
59513;BME280;45330;51.634;5.562;2024-03-02T00:50:19;99864.06;;;6.95;100.00
59513;BME280;45330;51.634;5.562;2024-03-02T00:52:46;99870.13;;;6.90;100.00
59513;BME280;45330;51.634;5.562;2024-03-02T00:55:13;99865.00;;;6.85;100.00
59513;BME280;45330;51.634;5.562;2024-03-02T00:57:39;99872.78;;;6.77;100.00
59513;BME280;45330;51.634;5.562;2024-03-02T01:00:05;99884.84;;;6.80;100.00
59513;BME280;45330;51.634;5.562;2024-03-02T01:02:35;99889.19;;;6.73;100.00
59513;BME280;45330;51.634;5.562;2024-03-02T01:05:00;99884.09;;;6.64;100.00
59513;BME280;45330;51.634;5.562;2024-03-02T01:07:26;99882.38;;;6.55;100.00
59513;BME280;45330;51.634;5.562;2024-03-02T01:09:51;99884.13;;;6.53;100.00
59513;BME280;45330;51.634;5.562;2024-03-02T01:12:17;99878.09;;;6.49;100.00
59513;BME280;45330;51.634;5.562;2024-03-02T01:14:42;99873.81;;;6.47;100.00
59513;BME280;45330;51.634;5.562;2024-03-02T01:17:07;99878.16;;;6.42;100.00
59513;BME280;45330;51.634;5.562;2024-03-02T01:19:33;99887.63;;;6.40;100.00
59513;BME280;45330;51.634;5.562;2024-03-02T01:21:58;99891.94;;;6.41;100.00
59513;BME280;45330;51.634;5.562;2024-03-02T01:24:24;99866.97;;;6.35;100.00
59513;BME280;45330;51.634;5.562;2024-03-02T01:26:49;99881.59;;;6.42;100.00
59513;BME280;45330;51.634;5.562;2024-03-02T01:29:15;99882.47;;;6.43;100.00
59513;BME280;45330;51.634;5.562;2024-03-02T01:31:40;99880.72;;;6.43;100.00
59513;BME280;45330;51.634;5.562;2024-03-02T01:34:07;99879.00;;;6.48;100.00
59513;BME280;45330;51.634;5.562;2024-03-02T01:36:33;99883.28;;;6.49;100.00
59513;BME280;45330;51.634;5.562;2024-03-02T01:38:58;99885.88;;;6.48;100.00
59513;BME280;45330;51.634;5.562;2024-03-02T01:41:24;99884.16;;;6.50;100.00
59513;BME280;45330;51.634;5.562;2024-03-02T01:43:49;99869.50;;;6.49;100.00
59513;BME280;45330;51.634;5.562;2024-03-02T01:46:15;99874.66;;;6.50;100.00
59513;BME280;45330;51.634;5.562;2024-03-02T01:48:40;99882.41;;;6.52;100.00
59513;BME280;45330;51.634;5.562;2024-03-02T01:51:06;99887.56;;;6.52;100.00
59513;BME280;45330;51.634;5.562;2024-03-02T01:53:31;99891.00;;;6.52;100.00
59513;BME280;45330;51.634;5.562;2024-03-02T01:55:57;99879.81;;;6.52;100.00
59513;BME280;45330;51.634;5.562;2024-03-02T01:58:24;99882.41;;;6.52;100.00
59513;BME280;45330;51.634;5.562;2024-03-02T02:00:49;99876.41;;;6.50;100.00
59513;BME280;45330;51.634;5.562;2024-03-02T02:03:15;99876.38;;;6.47;100.00
59513;BME280;45330;51.634;5.562;2024-03-02T02:05:42;99872.97;;;6.42;100.00
59513;BME280;45330;51.634;5.562;2024-03-02T02:08:07;99872.97;;;6.43;100.00
59513;BME280;45330;51.634;5.562;2024-03-02T02:10:33;99891.91;;;6.44;100.00
59513;BME280;45330;51.634;5.562;2024-03-02T02:12:58;99886.72;;;6.47;100.00
59513;BME280;45330;51.634;5.562;2024-03-02T02:15:31;99887.59;;;6.47;100.00
59513;BME280;45330;51.634;5.562;2024-03-02T02:17:58;99879.84;;;6.46;100.00
59513;BME280;45330;51.634;5.562;2024-03-02T02:20:24;99880.72;;;6.45;100.00
59513;BME280;45330;51.634;5.562;2024-03-02T02:25:24;99874.72;;;6.38;100.00
59513;BME280;45330;51.634;5.562;2024-03-02T02:27:50;99885.91;;;6.35;100.00
59513;BME280;45330;51.634;5.562;2024-03-02T02:30:25;99877.31;;;6.35;100.00
59513;BME280;45330;51.634;5.562;2024-03-02T02:32:50;99876.47;;;6.31;100.00
59513;BME280;45330;51.634;5.562;2024-03-02T02:35:16;99884.22;;;6.31;100.00
59513;BME280;45330;51.634;5.562;2024-03-02T02:37:42;99881.63;;;6.30;100.00
59513;BME280;45330;51.634;5.562;2024-03-02T02:40:08;99878.19;;;6.31;100.00
59513;BME280;45330;51.634;5.562;2024-03-02T02:42:34;99871.31;;;6.33;100.00
59513;BME280;45330;51.634;5.562;2024-03-02T02:44:59;99873.88;;;6.36;100.00
59513;BME280;45330;51.634;5.562;2024-03-02T02:47:25;99872.16;;;6.33;100.00
59513;BME280;45330;51.634;5.562;2024-03-02T02:49:51;99859.25;;;6.30;100.00
59513;BME280;45330;51.634;5.562;2024-03-02T02:52:16;99863.53;;;6.31;100.00
59513;BME280;45330;51.634;5.562;2024-03-02T02:54:43;99867.84;;;6.31;100.00
59513;BME280;45330;51.634;5.562;2024-03-02T02:57:08;99863.56;;;6.28;100.00
59513;BME280;45330;51.634;5.562;2024-03-02T02:59:35;99876.47;;;6.31;100.00
59513;BME280;45330;51.634;5.562;2024-03-02T03:02:01;99890.28;;;6.29;100.00
59513;BME280;45330;51.634;5.562;2024-03-02T03:04:26;99889.41;;;6.28;100.00
59513;BME280;45330;51.634;5.562;2024-03-02T03:06:51;99873.03;;;6.29;100.00
59513;BME280;45330;51.634;5.562;2024-03-02T03:09:17;99883.41;;;6.25;100.00
59513;BME280;45330;51.634;5.562;2024-03-02T03:11:42;99879.09;;;6.22;100.00
59513;BME280;45330;51.634;5.562;2024-03-02T03:14:07;99889.41;;;6.25;100.00
59513;BME280;45330;51.634;5.562;2024-03-02T03:16:33;99890.28;;;6.23;100.00
59513;BME280;45330;51.634;5.562;2024-03-02T03:18:58;99891.16;;;6.25;100.00
59513;BME280;45330;51.634;5.562;2024-03-02T03:21:23;99895.44;;;6.27;100.00
59513;BME280;45330;51.634;5.562;2024-03-02T03:23:49;99892.84;;;6.29;100.00
59513;BME280;45330;51.634;5.562;2024-03-02T03:26:14;99891.13;;;6.29;100.00
59513;BME280;45330;51.634;5.562;2024-03-02T03:28:40;99896.28;;;6.31;100.00
59513;BME280;45330;51.634;5.562;2024-03-02T03:31:05;99895.44;;;6.27;100.00
59513;BME280;45330;51.634;5.562;2024-03-02T03:33:31;99903.16;;;6.33;100.00
59513;BME280;45330;51.634;5.562;2024-03-02T03:35:56;99897.13;;;6.34;100.00
59513;BME280;45330;51.634;5.562;2024-03-02T03:38:22;99904.84;;;6.41;100.00
59513;BME280;45330;51.634;5.562;2024-03-02T03:40:47;99897.13;;;6.38;100.00
59513;BME280;45330;51.634;5.562;2024-03-02T03:43:15;99900.56;;;6.37;100.00
59513;BME280;45330;51.634;5.562;2024-03-02T03:45:41;99897.13;;;6.38;100.00
59513;BME280;45330;51.634;5.562;2024-03-02T03:48:06;99905.72;;;6.37;100.00
59513;BME280;45330;51.634;5.562;2024-03-02T03:50:32;99919.53;;;6.32;100.00
59513;BME280;45330;51.634;5.562;2024-03-02T03:52:57;99914.38;;;6.31;100.00
59513;BME280;45330;51.634;5.562;2024-03-02T03:55:23;99898.88;;;6.31;100.00
59513;BME280;45330;51.634;5.562;2024-03-02T03:57:48;99903.19;;;6.30;100.00
59513;BME280;45330;51.634;5.562;2024-03-02T04:00:14;99911.78;;;6.29;100.00
59513;BME280;45330;51.634;5.562;2024-03-02T04:02:39;99916.97;;;6.28;100.00
59513;BME280;45330;51.634;5.562;2024-03-02T04:05:05;99905.78;;;6.29;100.00
59513;BME280;45330;51.634;5.562;2024-03-02T04:07:35;99910.94;;;6.29;100.00
59513;BME280;45330;51.634;5.562;2024-03-02T04:10:09;99915.25;;;6.27;100.00
59513;BME280;45330;51.634;5.562;2024-03-02T04:12:38;99914.41;;;6.23;100.00
59513;BME280;45330;51.634;5.562;2024-03-02T04:15:04;99913.53;;;6.24;100.00
59513;BME280;45330;51.634;5.562;2024-03-02T04:17:32;99921.28;;;6.27;100.00
59513;BME280;45330;51.634;5.562;2024-03-02T04:19:58;99917.81;;;6.28;100.00
59513;BME280;45330;51.634;5.562;2024-03-02T04:22:24;99924.72;;;6.28;100.00
59513;BME280;45330;51.634;5.562;2024-03-02T04:24:49;99924.72;;;6.26;100.00
59513;BME280;45330;51.634;5.562;2024-03-02T04:27:14;99923.84;;;6.24;100.00
59513;BME280;45330;51.634;5.562;2024-03-02T04:29:40;99919.56;;;6.25;100.00
59513;BME280;45330;51.634;5.562;2024-03-02T04:32:05;99920.44;;;6.19;100.00
59513;BME280;45330;51.634;5.562;2024-03-02T04:34:31;99913.59;;;6.12;100.00
59513;BME280;45330;51.634;5.562;2024-03-02T04:36:56;99911.88;;;5.98;100.00
59513;BME280;45330;51.634;5.562;2024-03-02T04:39:21;99917.91;;;5.87;100.00
59513;BME280;45330;51.634;5.562;2024-03-02T04:41:47;99914.47;;;5.77;100.00
59513;BME280;45330;51.634;5.562;2024-03-02T04:44:13;99925.66;;;5.68;100.00
59513;BME280;45330;51.634;5.562;2024-03-02T04:46:38;99921.38;;;5.59;100.00
59513;BME280;45330;51.634;5.562;2024-03-02T04:49:03;99922.22;;;5.54;100.00
59513;BME280;45330;51.634;5.562;2024-03-02T04:51:29;99923.09;;;5.45;100.00
59513;BME280;45330;51.634;5.562;2024-03-02T04:53:54;99909.34;;;5.37;100.00
59513;BME280;45330;51.634;5.562;2024-03-02T04:56:20;99923.94;;;5.44;100.00
59513;BME280;45330;51.634;5.562;2024-03-02T04:58:48;99924.81;;;5.50;100.00
59513;BME280;45330;51.634;5.562;2024-03-02T05:01:13;99932.56;;;5.55;100.00
59513;BME280;45330;51.634;5.562;2024-03-02T05:03:38;99936.00;;;5.57;100.00
59513;BME280;45330;51.634;5.562;2024-03-02T05:06:04;99939.44;;;5.62;100.00
59513;BME280;45330;51.634;5.562;2024-03-02T05:08:29;99934.25;;;5.62;100.00
59513;BME280;45330;51.634;5.562;2024-03-02T05:10:54;99944.59;;;5.65;100.00
59513;BME280;45330;51.634;5.562;2024-03-02T05:13:20;99938.56;;;5.66;100.00
59513;BME280;45330;51.634;5.562;2024-03-02T05:15:46;99941.16;;;5.71;100.00
59513;BME280;45330;51.634;5.562;2024-03-02T05:18:11;99933.41;;;5.68;100.00
59513;BME280;45330;51.634;5.562;2024-03-02T05:20:37;99942.03;;;5.69;100.00
59513;BME280;45330;51.634;5.562;2024-03-02T05:23:02;99936.00;;;5.59;100.00
59513;BME280;45330;51.634;5.562;2024-03-02T05:25:28;99942.88;;;5.44;100.00
59513;BME280;45330;51.634;5.562;2024-03-02T05:27:53;99939.41;;;5.31;100.00
59513;BME280;45330;51.634;5.562;2024-03-02T05:30:19;99943.72;;;5.17;100.00
59513;BME280;45330;51.634;5.562;2024-03-02T05:32:44;99935.97;;;5.11;100.00
59513;BME280;45330;51.634;5.562;2024-03-02T05:35:09;99952.28;;;5.14;100.00
59513;BME280;45330;51.634;5.562;2024-03-02T05:37:36;99959.19;;;5.14;100.00
59513;BME280;45330;51.634;5.562;2024-03-02T05:40:01;99967.78;;;5.13;100.00
59513;BME280;45330;51.634;5.562;2024-03-02T05:42:28;99969.50;;;5.15;100.00
59513;BME280;45330;51.634;5.562;2024-03-02T05:44:53;99958.34;;;5.13;100.00
59513;BME280;45330;51.634;5.562;2024-03-02T05:47:19;99968.69;;;5.29;100.00
59513;BME280;45330;51.634;5.562;2024-03-02T05:49:44;99922.22;;;5.06;100.00
59513;BME280;45330;51.634;5.562;2024-03-02T05:52:10;99979.88;;;5.45;100.00
59513;BME280;45330;51.634;5.562;2024-03-02T05:54:36;99977.31;;;5.54;100.00
59513;BME280;45330;51.634;5.562;2024-03-02T05:57:02;99978.16;;;5.65;100.00
59513;BME280;45330;51.634;5.562;2024-03-02T05:59:42;99981.59;;;5.71;100.00
59513;BME280;45330;51.634;5.562;2024-03-02T06:02:07;99978.13;;;5.76;100.00
59513;BME280;45330;51.634;5.562;2024-03-02T06:04:32;99972.97;;;5.79;100.00
59513;BME280;45330;51.634;5.562;2024-03-02T06:06:58;99974.69;;;5.83;100.00
59513;BME280;45330;51.634;5.562;2024-03-02T06:09:23;99979.00;;;5.80;100.00
59513;BME280;45330;51.634;5.562;2024-03-02T06:11:49;99985.88;;;5.87;100.00
59513;BME280;45330;51.634;5.562;2024-03-02T06:14:15;99988.47;;;5.90;100.00
59513;BME280;45330;51.634;5.562;2024-03-02T06:16:40;99982.44;;;5.88;100.00
59513;BME280;45330;51.634;5.562;2024-03-02T06:19:06;99989.31;;;5.89;100.00
59513;BME280;45330;51.634;5.562;2024-03-02T06:21:32;99989.34;;;5.80;100.00
59513;BME280;45330;51.634;5.562;2024-03-02T06:23:57;100008.25;;;5.83;100.00
59513;BME280;45330;51.634;5.562;2024-03-02T06:26:24;99997.94;;;5.87;100.00
59513;BME280;45330;51.634;5.562;2024-03-02T06:28:49;99998.78;;;5.93;100.00
59513;BME280;45330;51.634;5.562;2024-03-02T06:31:15;99996.19;;;5.93;100.00
59513;BME280;45330;51.634;5.562;2024-03-02T06:33:41;100002.25;;;5.95;100.00
59513;BME280;45330;51.634;5.562;2024-03-02T06:36:06;99993.63;;;5.95;100.00
59513;BME280;45330;51.634;5.562;2024-03-02T06:38:37;99995.34;;;5.91;100.00
59513;BME280;45330;51.634;5.562;2024-03-02T06:41:02;100003.09;;;5.93;100.00
59513;BME280;45330;51.634;5.562;2024-03-02T06:43:29;100003.13;;;5.88;100.00
59513;BME280;45330;51.634;5.562;2024-03-02T06:45:54;100009.13;;;5.90;100.00
59513;BME280;45330;51.634;5.562;2024-03-02T06:48:20;100011.72;;;5.86;100.00
59513;BME280;45330;51.634;5.562;2024-03-02T06:50:49;100005.69;;;5.74;100.00
59513;BME280;45330;51.634;5.562;2024-03-02T06:53:15;100004.81;;;5.67;100.00
59513;BME280;45330;51.634;5.562;2024-03-02T06:55:45;100011.72;;;5.67;100.00
59513;BME280;45330;51.634;5.562;2024-03-02T06:58:11;100009.13;;;5.58;100.00
59513;BME280;45330;51.634;5.562;2024-03-02T07:00:37;100015.16;;;5.64;100.00
59513;BME280;45330;51.634;5.562;2024-03-02T07:03:02;100025.47;;;5.64;100.00
59513;BME280;45330;51.634;5.562;2024-03-02T07:05:28;100024.59;;;5.61;100.00
59513;BME280;45330;51.634;5.562;2024-03-02T07:07:53;100028.03;;;5.72;100.00
59513;BME280;45330;51.634;5.562;2024-03-02T07:10:18;100034.09;;;5.74;100.00
59513;BME280;45330;51.634;5.562;2024-03-02T07:12:44;100037.50;;;5.76;100.00
59513;BME280;45330;51.634;5.562;2024-03-02T07:15:10;100040.97;;;5.80;100.00
59513;BME280;45330;51.634;5.562;2024-03-02T07:17:53;100040.13;;;5.84;100.00
59513;BME280;45330;51.634;5.562;2024-03-02T07:20:19;100043.56;;;5.92;100.00
59513;BME280;45330;51.634;5.562;2024-03-02T07:22:44;100037.53;;;5.96;100.00
59513;BME280;45330;51.634;5.562;2024-03-02T07:25:10;100047.03;;;6.05;100.00
59513;BME280;45330;51.634;5.562;2024-03-02T07:27:35;100038.41;;;6.11;100.00
59513;BME280;45330;51.634;5.562;2024-03-02T07:30:02;100039.28;;;6.19;100.00
59513;BME280;45330;51.634;5.562;2024-03-02T07:32:28;100010.88;;;6.08;100.00
59513;BME280;45330;51.634;5.562;2024-03-02T07:34:53;100041.84;;;6.34;100.00
59513;BME280;45330;51.634;5.562;2024-03-02T07:37:19;100051.28;;;6.46;100.00
59513;BME280;45330;51.634;5.562;2024-03-02T07:39:45;100052.13;;;6.53;100.00
59513;BME280;45330;51.634;5.562;2024-03-02T07:42:11;100044.34;;;6.61;100.00
59513;BME280;45330;51.634;5.562;2024-03-02T07:44:36;100044.34;;;6.62;100.00
59513;BME280;45330;51.634;5.562;2024-03-02T07:47:01;100044.31;;;6.72;100.00
59513;BME280;45330;51.634;5.562;2024-03-02T07:49:27;100036.56;;;6.68;100.00
59513;BME280;45330;51.634;5.562;2024-03-02T07:51:52;100052.09;;;6.68;100.00
59513;BME280;45330;51.634;5.562;2024-03-02T07:54:18;100048.63;;;6.66;100.00
59513;BME280;45330;51.634;5.562;2024-03-02T07:56:43;100044.34;;;6.62;100.00
59513;BME280;45330;51.634;5.562;2024-03-02T07:59:09;100040.03;;;6.64;100.00
59513;BME280;45330;51.634;5.562;2024-03-02T08:01:35;100054.69;;;6.59;100.00
59513;BME280;45330;51.634;5.562;2024-03-02T08:04:01;100045.22;;;6.55;100.00
59513;BME280;45330;51.634;5.562;2024-03-02T08:06:29;100035.78;;;6.45;100.00
59513;BME280;45330;51.634;5.562;2024-03-02T08:08:58;100057.28;;;6.59;100.00
59513;BME280;45330;51.634;5.562;2024-03-02T08:11:24;100057.28;;;6.58;100.00
59513;BME280;45330;51.634;5.562;2024-03-02T08:13:50;100064.19;;;6.57;100.00
59513;BME280;45330;51.634;5.562;2024-03-02T08:16:16;100062.47;;;6.47;100.00
59513;BME280;45330;51.634;5.562;2024-03-02T08:18:44;100065.06;;;6.45;100.00
59513;BME280;45330;51.634;5.562;2024-03-02T08:21:09;100062.47;;;6.42;100.00
59513;BME280;45330;51.634;5.562;2024-03-02T08:23:35;100062.50;;;6.34;100.00
59513;BME280;45330;51.634;5.562;2024-03-02T08:26:00;100067.66;;;6.39;100.00
59513;BME280;45330;51.634;5.562;2024-03-02T08:28:26;100064.22;;;6.37;100.00
59513;BME280;45330;51.634;5.562;2024-03-02T08:30:51;100063.34;;;6.40;100.00
59513;BME280;45330;51.634;5.562;2024-03-02T08:33:16;100066.78;;;6.45;100.00
59513;BME280;45330;51.634;5.562;2024-03-02T08:35:42;100061.59;;;6.48;100.00
59513;BME280;45330;51.634;5.562;2024-03-02T08:38:07;100061.59;;;6.49;100.00
59513;BME280;45330;51.634;5.562;2024-03-02T08:40:33;100067.63;;;6.59;100.00
59513;BME280;45330;51.634;5.562;2024-03-02T08:42:58;100062.44;;;6.61;100.00
59513;BME280;45330;51.634;5.562;2024-03-02T08:45:24;100065.88;;;6.64;100.00
59513;BME280;45330;51.634;5.562;2024-03-02T08:47:49;100071.03;;;6.72;100.00
59513;BME280;45330;51.634;5.562;2024-03-02T08:50:14;100062.38;;;6.78;100.00
59513;BME280;45330;51.634;5.562;2024-03-02T08:52:40;100058.06;;;6.81;100.00
59513;BME280;45330;51.634;5.562;2024-03-02T08:55:06;100041.72;;;6.81;100.00
59513;BME280;45330;51.634;5.562;2024-03-02T08:57:32;100057.16;;;6.99;100.00
59513;BME280;45330;51.634;5.562;2024-03-02T08:59:57;100061.38;;;7.13;100.00
59513;BME280;45330;51.634;5.562;2024-03-02T09:02:23;100056.19;;;7.20;100.00
59513;BME280;45330;51.634;5.562;2024-03-02T09:04:49;100063.03;;;7.31;100.00
59513;BME280;45330;51.634;5.562;2024-03-02T09:07:14;100052.66;;;7.38;100.00
59513;BME280;45330;51.634;5.562;2024-03-02T09:09:40;100067.28;;;7.39;100.00
59513;BME280;45330;51.634;5.562;2024-03-02T09:12:06;100061.22;;;7.44;100.00
59513;BME280;45330;51.634;5.562;2024-03-02T09:14:32;100065.50;;;7.51;100.00
59513;BME280;45330;51.634;5.562;2024-03-02T09:16:57;100061.19;;;7.53;100.00
59513;BME280;45330;51.634;5.562;2024-03-02T09:19:23;100062.88;;;7.60;100.00
59513;BME280;45330;51.634;5.562;2024-03-02T09:21:48;100070.56;;;7.71;100.00
59513;BME280;45330;51.634;5.562;2024-03-02T09:24:15;100062.81;;;7.71;100.00
59513;BME280;45330;51.634;5.562;2024-03-02T09:26:40;100067.09;;;7.73;100.00
59513;BME280;45330;51.634;5.562;2024-03-02T09:29:06;100067.03;;;7.83;100.00
59513;BME280;45330;51.634;5.562;2024-03-02T09:31:31;100062.69;;;7.88;100.00
59513;BME280;45330;51.634;5.562;2024-03-02T09:33:56;100061.78;;;7.94;100.00
59513;BME280;45330;51.634;5.562;2024-03-02T09:36:22;100061.72;;;8.00;100.00
59513;BME280;45330;51.634;5.562;2024-03-02T09:38:48;100052.22;;;8.00;100.00
59513;BME280;45330;51.634;5.562;2024-03-02T09:41:16;100063.38;;;8.07;100.00
59513;BME280;45330;51.634;5.562;2024-03-02T09:43:42;100053.06;;;8.02;100.00
59513;BME280;45330;51.634;5.562;2024-03-02T09:46:10;100061.56;;;8.15;100.00
59513;BME280;45330;51.634;5.562;2024-03-02T09:48:36;100072.75;;;8.22;100.00
59513;BME280;45330;51.634;5.562;2024-03-02T09:51:01;100066.72;;;8.23;100.00
59513;BME280;45330;51.634;5.562;2024-03-02T09:53:33;100074.44;;;8.28;100.00
59513;BME280;45330;51.634;5.562;2024-03-02T09:56:02;100061.41;;;8.34;100.00
59513;BME280;45330;51.634;5.562;2024-03-02T09:58:28;100056.22;;;8.34;100.00
59513;BME280;45330;51.634;5.562;2024-03-02T10:00:54;100059.63;;;8.39;100.00
59513;BME280;45330;51.634;5.562;2024-03-02T10:03:19;100069.03;;;8.51;100.00
59513;BME280;45330;51.634;5.562;2024-03-02T10:05:46;100040.59;;;8.43;100.00
59513;BME280;45330;51.634;5.562;2024-03-02T10:08:11;100065.53;;;8.60;100.00
59513;BME280;45330;51.634;5.562;2024-03-02T10:10:38;100068.91;;;8.65;100.00
59513;BME280;45330;51.634;5.562;2024-03-02T10:13:08;100063.69;;;8.69;100.00
59513;BME280;45330;51.634;5.562;2024-03-02T10:15:34;100054.16;;;8.70;100.00
59513;BME280;45330;51.634;5.562;2024-03-02T10:17:59;100043.72;;;8.74;100.00
59513;BME280;45330;51.634;5.562;2024-03-02T10:20:26;100044.53;;;8.80;100.00
59513;BME280;45330;51.634;5.562;2024-03-02T10:22:54;100028.06;;;8.84;100.00
59513;BME280;45330;51.634;5.562;2024-03-02T10:25:30;100030.59;;;8.88;100.00
59513;BME280;45330;51.634;5.562;2024-03-02T10:28:00;100026.25;;;8.92;100.00
59513;BME280;45330;51.634;5.562;2024-03-02T10:30:28;100025.31;;;8.96;100.00
59513;BME280;45330;51.634;5.562;2024-03-02T10:32:55;100037.38;;;9.00;100.00
59513;BME280;45330;51.634;5.562;2024-03-02T10:35:22;100033.88;;;9.04;100.00
59513;BME280;45330;51.634;5.562;2024-03-02T10:37:49;100032.94;;;9.07;100.00
59513;BME280;45330;51.634;5.562;2024-03-02T10:40:14;100028.63;;;9.07;100.00
59513;BME280;45330;51.634;5.562;2024-03-02T10:42:41;100025.91;;;9.17;100.00
59513;BME280;45330;51.634;5.562;2024-03-02T10:45:11;100027.56;;;9.22;100.00
59513;BME280;45330;51.634;5.562;2024-03-02T10:47:37;100038.72;;;9.29;100.00
59513;BME280;45330;51.634;5.562;2024-03-02T10:50:04;100011.03;;;9.28;100.00
59513;BME280;45330;51.634;5.562;2024-03-02T10:52:37;100028.16;;;9.41;100.00
59513;BME280;45330;51.634;5.562;2024-03-02T10:55:03;100030.72;;;9.44;100.00
59513;BME280;45330;51.634;5.562;2024-03-02T10:57:52;100027.22;;;9.47;100.00
59513;BME280;45330;51.634;5.562;2024-03-02T11:00:24;100011.75;;;9.41;100.00
59513;BME280;45330;51.634;5.562;2024-03-02T11:03:07;100020.25;;;9.49;100.00
59513;BME280;45330;51.634;5.562;2024-03-02T11:05:39;100029.69;;;9.55;100.00
59513;BME280;45330;51.634;5.562;2024-03-02T11:08:07;100019.28;;;9.58;100.00
59513;BME280;45330;51.634;5.562;2024-03-02T11:13:16;100026.81;;;9.75;100.00
59513;BME280;45330;51.634;5.562;2024-03-02T11:15:46;100026.81;;;9.75;100.00
59513;BME280;45330;51.634;5.562;2024-03-02T11:18:12;100010.31;;;9.77;100.00
59513;BME280;45330;51.634;5.562;2024-03-02T11:20:39;100020.66;;;9.81;100.00
59513;BME280;45330;51.634;5.562;2024-03-02T11:23:06;100009.31;;;9.85;100.00
59513;BME280;45330;51.634;5.562;2024-03-02T11:25:32;100010.81;;;9.98;100.00
59513;BME280;45330;51.634;5.562;2024-03-02T11:28:07;100009.03;;;10.02;100.00
59513;BME280;45330;51.634;5.562;2024-03-02T11:33:05;100014.72;;;10.24;100.00
59513;BME280;45330;51.634;5.562;2024-03-02T11:35:38;100018.09;;;10.29;100.00
59513;BME280;45330;51.634;5.562;2024-03-02T11:38:03;100017.16;;;10.32;99.66
59513;BME280;45330;51.634;5.562;2024-03-02T11:40:30;100014.59;;;10.30;99.29
59513;BME280;45330;51.634;5.562;2024-03-02T11:42:56;100006.69;;;10.39;100.00
59513;BME280;45330;51.634;5.562;2024-03-02T11:45:26;100011.94;;;10.33;100.00
59513;BME280;45330;51.634;5.562;2024-03-02T11:47:54;100007.63;;;10.32;100.00
59513;BME280;45330;51.634;5.562;2024-03-02T11:50:46;99996.28;;;10.38;100.00
59513;BME280;45330;51.634;5.562;2024-03-02T11:53:12;100001.28;;;10.49;99.45
59513;BME280;45330;51.634;5.562;2024-03-02T11:55:39;99997.84;;;10.48;97.34
59513;BME280;45330;51.634;5.562;2024-03-02T11:58:15;99995.09;;;10.54;98.22
59513;BME280;45330;51.634;5.562;2024-03-02T12:00:45;99998.38;;;10.64;100.00
59513;BME280;45330;51.634;5.562;2024-03-02T12:03:13;99997.44;;;10.68;97.75
59513;BME280;45330;51.634;5.562;2024-03-02T12:05:39;99992.16;;;10.71;95.90
59513;BME280;45330;51.634;5.562;2024-03-02T12:08:06;99980.81;;;10.75;95.26
59513;BME280;45330;51.634;5.562;2024-03-02T12:10:32;99980.53;;;10.88;97.19
59513;BME280;45330;51.634;5.562;2024-03-02T12:13:01;99979.53;;;10.95;98.14
59513;BME280;45330;51.634;5.562;2024-03-02T12:15:35;99973.22;;;11.05;98.28
59513;BME280;45330;51.634;5.562;2024-03-02T12:18:02;99965.41;;;11.05;97.73
59513;BME280;45330;51.634;5.562;2024-03-02T12:20:29;99962.69;;;11.11;94.86
59513;BME280;45330;51.634;5.562;2024-03-02T12:22:57;99960.81;;;11.16;94.74
59513;BME280;45330;51.634;5.562;2024-03-02T12:25:24;99963.25;;;11.24;96.79
59513;BME280;45330;51.634;5.562;2024-03-02T12:27:53;99960.53;;;11.29;96.15
59513;BME280;45330;51.634;5.562;2024-03-02T12:30:20;99958.53;;;11.40;94.83
59513;BME280;45330;51.634;5.562;2024-03-02T12:32:45;99959.28;;;11.45;92.48
59513;BME280;45330;51.634;5.562;2024-03-02T12:35:11;99954.88;;;11.47;92.51
59513;BME280;45330;51.634;5.562;2024-03-02T12:37:45;99946.06;;;11.55;92.37
59513;BME280;45330;51.634;5.562;2024-03-02T12:40:12;99930.16;;;11.64;94.54
59513;BME280;45330;51.634;5.562;2024-03-02T12:42:38;99929.13;;;11.71;91.28
59513;BME280;45330;51.634;5.562;2024-03-02T12:45:04;99922.84;;;11.78;91.91
59513;BME280;45330;51.634;5.562;2024-03-02T12:47:30;99927.91;;;11.84;90.62
59513;BME280;45330;51.634;5.562;2024-03-02T12:49:55;99933.13;;;11.84;91.34
59513;BME280;45330;51.634;5.562;2024-03-02T12:52:21;99928.63;;;11.90;90.28
59513;BME280;45330;51.634;5.562;2024-03-02T12:54:47;99939.19;;;11.85;87.61
59513;BME280;45330;51.634;5.562;2024-03-02T12:57:19;99930.63;;;11.80;89.25
59513;BME280;45330;51.634;5.562;2024-03-02T12:59:47;99933.88;;;11.88;88.50
59513;BME280;45330;51.634;5.562;2024-03-02T13:02:19;99929.41;;;11.93;87.34